Gervais, Oregon
Current Conditions -  °F | °C
As of 11:13 PM on Wednesday 17 Dec 2014 (Local Time) from KUAO Reporting Station
Overcast Overcast  
Wind Chill: 44°   Ceiling: 2400
Heat Index: 46°   Visibility: 10mi
Dew Point: 45°   Wind: 5mph
Humidity: 96%   Direction: 170°S
Pressure: 29.99"   Gusts: NA
Location:  45.11°N, 122.9°W
Report Text: KUAO 180713Z AUTO 17004KT 10SM OVC024 08/07 A2999 RMK AO2 RAB0658E09 P0001 T00780072
Loading
Personal Weather Stations






























Interactive Weather Map New forecast layout! Learn more

10-Day Weather Forecast

Advertisements
Track Severe Weather on mobile